Terminal Aerodrome Forecast
Issued by NWS

Home | Current Version | Previous Version | Text Only | Print | Product List | Glossary On
Versions: 1 2 3 4 5 6 7 8 9 10 11 12 13 14 15 16 17 18 19 20
000
FTUS44 KLZK 261126
TAFBPK
TAF
KBPK 261126Z 2612/2712 35003KT 5SM BR VCSH SCT007 OVC015
      TEMPO 2612/2615 BKN007
     FM261500 34007KT P6SM OVC015
     FM262100 35005KT P6SM BKN050
     FM270300 29004KT P6SM SCT050 BKN250=

USA.gov is the U.S. government's official web portal to all federal, state and local government web resources and services.